Capitol Logistics 2181

Operating for AJT



KEWR
Newark Liberty International Airport
Newark, New Jersey
KMCO
Orlando International Airport
Orlando, Florida

Route Details

Aircraft Information
Group: Boeing Common
Types: B752,B762,B763
Route Data
Demand: M
Distance: 817nm
Duration: 2h 14m
Recm'd Route: ELVAE COL WHITE J209 SBY J79 KATZN J193 WEAVR J121 CHS IGARY Q85 LPERD OMN CWRLD4
Origin Wx: KEWR 270451Z 17003KT 10SM OVC011 20/16 A3007 RMK AO2 SLP181 T02000156 402170144
Dest. Wx: KMCO 270453Z 14008KT 10SM FEW060 SCT070 SCT210 BKN250 25/22 A3004 RMK AO2 SLP169 T02500217 403390233
Notes:

Financial History
Total Freight: 131,832lbs
Average Load: 65,916lbs/flt
Fuel Used: 46,148lbs
Avg. Fuel Used: 23,074lbs/flt
Fuel Expense: $44,289
Avg. Fuel Expense: $22,145
Avg. Fuel Cost: $0.93/lbs
Total Gross Income: $311,502
Pilot Pay: $498
Total Expenses: $42,153
Total Revenue: $223,931
Average Revenue: $155,750.90